createdAt,value
2018-11-28T00:00:06.392Z,69.12
2018-11-28T00:01:06.381Z,69.33
2018-11-28T00:02:06.371Z,67.29
2018-11-28T00:03:06.353Z,66.80
2018-11-28T00:04:06.357Z,66.09
2018-11-28T00:05:06.330Z,66.62
2018-11-28T00:06:06.323Z,66.09
2018-11-28T00:07:06.318Z,66.33
2018-11-28T00:08:06.300Z,66.75
2018-11-28T00:09:06.301Z,67.58
2018-11-28T00:10:06.277Z,68.63
2018-11-28T00:11:06.270Z,68.73
2018-11-28T00:12:06.257Z,68.32
2018-11-28T00:13:06.257Z,68.52
2018-11-28T00:14:06.254Z,68.73
2018-11-28T00:15:06.224Z,68.52
2018-11-28T00:16:06.214Z,67.58
2018-11-28T00:17:06.201Z,68.10
2018-11-28T00:18:06.190Z,67.38
2018-11-28T00:19:06.212Z,66.65
2018-11-28T00:20:06.171Z,66.96
2018-11-28T00:21:06.158Z,66.23
2018-11-28T00:22:06.153Z,66.44
2018-11-28T00:23:06.139Z,66.65
2018-11-28T00:24:06.128Z,66.75
2018-11-28T00:25:06.130Z,67.69
2018-11-28T00:26:06.107Z,68.42
2018-11-28T00:27:06.099Z,68.52
2018-11-28T00:28:06.089Z,66.75
2018-11-28T00:29:06.073Z,66.47
2018-11-28T00:30:06.079Z,67.51
2018-11-28T00:31:06.059Z,66.78
2018-11-28T00:32:06.044Z,66.16
2018-11-28T00:33:06.033Z,65.43
2018-11-28T00:34:06.021Z,66.26
2018-11-28T00:35:06.024Z,66.78
2018-11-28T00:36:05.999Z,67.41
2018-11-28T00:37:05.993Z,67.82
2018-11-28T00:38:05.983Z,67.82
2018-11-28T00:39:05.969Z,68.45
2018-11-28T00:40:05.974Z,67.61
2018-11-28T00:41:05.949Z,66.68
2018-11-28T00:42:05.942Z,66.47
2018-11-28T00:43:05.940Z,66.57
2018-11-28T00:44:05.916Z,66.33
2018-11-28T00:45:05.914Z,66.33
2018-11-28T00:46:05.895Z,66.33
2018-11-28T00:47:05.884Z,65.61
2018-11-28T00:48:05.878Z,65.30
2018-11-28T00:49:05.863Z,65.81
2018-11-28T00:50:05.903Z,64.98
2018-11-28T00:51:05.853Z,64.25
2018-11-28T00:52:05.831Z,64.04
2018-11-28T00:53:05.820Z,64.56
2018-11-28T00:54:05.813Z,65.71
2018-11-28T00:55:05.796Z,65.30
2018-11-28T00:56:05.804Z,68.42
2018-11-28T00:57:05.785Z,69.38
2018-11-28T00:58:05.767Z,69.07
2018-11-28T00:59:05.755Z,69.28
2018-11-28T01:00:05.744Z,69.28
2018-11-28T01:01:05.752Z,69.81
2018-11-28T01:02:05.727Z,69.31
2018-11-28T01:03:05.715Z,69.91
2018-11-28T01:04:05.702Z,70.15
2018-11-28T01:05:05.691Z,71.99
2018-11-28T01:06:05.697Z,72.24
2018-11-28T01:07:05.673Z,72.55
2018-11-28T01:08:05.661Z,73.27
2018-11-28T01:09:05.648Z,73.17
2018-11-28T01:10:05.638Z,73.27
2018-11-28T01:11:05.642Z,73.49
2018-11-28T01:12:05.623Z,73.83
2018-11-28T01:13:05.606Z,74.15
2018-11-28T01:14:05.595Z,74.15
2018-11-28T01:15:05.588Z,74.42
2018-11-28T01:16:05.588Z,74.42
2018-11-28T01:17:05.565Z,74.52
2018-11-28T01:18:05.562Z,74.74
2018-11-28T01:19:05.543Z,74.77
2018-11-28T01:20:05.532Z,74.56
2018-11-28T01:21:05.537Z,74.87
2018-11-28T01:22:05.511Z,74.66
2018-11-28T01:23:05.522Z,74.77
2018-11-28T01:24:05.491Z,74.77
2018-11-28T01:25:05.481Z,75.08
2018-11-28T01:26:05.479Z,75.18
2018-11-28T01:27:05.651Z,74.95
2018-11-28T01:28:05.452Z,75.08
2018-11-28T01:29:05.439Z,75.60
2018-11-28T01:30:05.427Z,75.81
2018-11-28T01:31:05.427Z,75.81
2018-11-28T01:32:05.407Z,75.53
2018-11-28T01:33:05.393Z,75.85
2018-11-28T01:34:05.384Z,76.06
2018-11-28T01:35:05.375Z,76.16
2018-11-28T01:36:05.379Z,76.06
2018-11-28T01:37:05.353Z,76.26
2018-11-28T01:38:05.346Z,76.68
2018-11-28T01:39:05.329Z,76.57
2018-11-28T01:40:05.321Z,76.68
2018-11-28T01:41:05.321Z,76.47
2018-11-28T01:42:05.304Z,76.06
2018-11-28T01:43:05.298Z,76.16
2018-11-28T01:44:05.279Z,76.47
2018-11-28T01:45:05.268Z,76.47
2018-11-28T01:46:05.274Z,76.79
2018-11-28T01:47:05.248Z,76.57
2018-11-28T01:48:05.242Z,76.79
2018-11-28T01:49:05.229Z,76.06
2018-11-28T01:50:05.215Z,76.16
2018-11-28T01:51:05.220Z,76.16
2018-11-28T01:52:05.196Z,75.92
2018-11-28T01:53:05.190Z,75.81
2018-11-28T01:54:05.173Z,75.92
2018-11-28T01:55:05.167Z,75.81
2018-11-28T01:56:05.164Z,76.02
2018-11-28T01:57:05.142Z,76.12
2018-11-28T01:58:05.133Z,76.43
2018-11-28T01:59:05.128Z,76.26
2018-11-28T02:00:05.109Z,76.79
2018-11-28T02:01:05.109Z,76.54
2018-11-28T02:02:05.091Z,76.47
2018-11-28T02:03:05.085Z,76.89
2018-11-28T02:04:05.081Z,77.31
2018-11-28T02:05:05.065Z,77.83
2018-11-28T02:06:05.078Z,78.56
2018-11-28T02:07:05.039Z,77.62
2018-11-28T02:08:05.027Z,77.51
2018-11-28T02:09:05.020Z,77.94
2018-11-28T02:10:05.009Z,78.28
2018-11-28T02:11:05.008Z,78.18
2018-11-28T02:12:04.996Z,78.25
2018-11-28T02:13:04.974Z,78.25
2018-11-28T02:14:04.980Z,78.25
2018-11-28T02:15:04.961Z,78.45
2018-11-28T02:16:04.947Z,77.94
2018-11-28T02:17:04.950Z,78.28
2018-11-28T02:18:04.926Z,78.25
2018-11-28T02:19:04.913Z,78.56
2018-11-28T02:20:04.902Z,78.59
2018-11-28T02:21:04.902Z,78.39
2018-11-28T02:22:04.893Z,78.80
2018-11-28T02:23:04.868Z,78.70
2018-11-28T02:24:04.859Z,79.33
2018-11-28T02:25:04.849Z,79.22
2018-11-28T02:26:04.839Z,79.53
2018-11-28T02:27:04.859Z,79.11
2018-11-28T02:28:04.821Z,79.11
2018-11-28T02:29:04.807Z,79.11
2018-11-28T02:30:04.795Z,79.11
2018-11-28T02:31:04.786Z,79.74
2018-11-28T02:32:04.799Z,79.11
2018-11-28T02:33:04.766Z,78.80
2018-11-28T02:34:04.754Z,78.91
2018-11-28T02:35:04.742Z,78.80
2018-11-28T02:36:04.732Z,78.39
2018-11-28T02:37:04.739Z,79.22
2018-11-28T02:38:04.717Z,78.70
2018-11-28T02:39:05.338Z,79.74
2018-11-28T02:40:04.702Z,79.68
2018-11-28T02:41:04.682Z,79.53
2018-11-28T02:42:04.687Z,79.64
2018-11-28T02:43:04.659Z,79.78
2018-11-28T02:44:04.657Z,80.09
2018-11-28T02:45:04.640Z,80.20
2018-11-28T02:46:04.642Z,80.41
2018-11-28T02:47:04.644Z,80.27
2018-11-28T02:48:04.607Z,80.51
2018-11-28T02:49:04.599Z,80.41
2018-11-28T02:50:04.595Z,79.68
2018-11-28T02:51:04.582Z,80.20
2018-11-28T02:52:04.580Z,80.37
2018-11-28T02:53:04.556Z,79.85
2018-11-28T02:54:04.547Z,80.51
2018-11-28T02:55:04.536Z,80.47
2018-11-28T02:56:04.533Z,80.20
2018-11-28T02:57:04.527Z,80.09
2018-11-28T02:58:04.513Z,80.62
2018-11-28T02:59:04.494Z,80.20
2018-11-28T03:00:04.486Z,80.09
2018-11-28T03:01:04.473Z,80.09
2018-11-28T03:02:04.490Z,80.41
2018-11-28T03:03:04.450Z,79.68
2018-11-28T03:04:04.446Z,79.99
2018-11-28T03:05:04.431Z,79.88
2018-11-28T03:06:04.422Z,79.92
2018-11-28T03:07:04.422Z,80.24
2018-11-28T03:08:04.403Z,80.55
2018-11-28T03:09:04.391Z,80.02
2018-11-28T03:10:04.391Z,80.38
2018-11-28T03:11:04.368Z,80.79
2018-11-28T03:12:04.370Z,81.32
2018-11-28T03:13:04.351Z,80.69
2018-11-28T03:14:04.342Z,80.69
2018-11-28T03:15:04.328Z,80.38
2018-11-28T03:16:04.315Z,80.27
2018-11-28T03:17:04.333Z,80.69
2018-11-28T03:18:04.296Z,80.27
2018-11-28T03:19:04.286Z,80.20
2018-11-28T03:20:04.275Z,80.31
2018-11-28T03:21:04.267Z,80.31
2018-11-28T03:22:04.269Z,80.62
2018-11-28T03:23:04.241Z,80.73
2018-11-28T03:24:04.233Z,80.97
2018-11-28T03:25:04.224Z,81.29
2018-11-28T03:26:04.212Z,80.55
2018-11-28T03:27:04.214Z,81.18
2018-11-28T03:28:04.191Z,81.07
2018-11-28T03:29:04.190Z,81.29
2018-11-28T03:30:04.173Z,82.23
2018-11-28T03:31:04.165Z,81.60
2018-11-28T03:32:04.160Z,81.49
2018-11-28T03:33:04.152Z,81.70
2018-11-28T03:34:04.136Z,82.43
2018-11-28T03:35:04.115Z,82.12
2018-11-28T03:36:04.112Z,82.06
2018-11-28T03:37:04.201Z,82.06
2018-11-28T03:38:04.090Z,82.12
2018-11-28T03:39:04.083Z,82.16
2018-11-28T03:40:04.073Z,82.23
2018-11-28T03:41:04.105Z,82.23
2018-11-28T03:42:04.076Z,81.74
2018-11-28T03:43:04.042Z,81.18
2018-11-28T03:44:04.023Z,81.49
2018-11-28T03:45:04.027Z,82.47
2018-11-28T03:46:04.002Z,81.95
2018-11-28T03:47:03.994Z,82.26
2018-11-28T03:48:03.992Z,82.26
2018-11-28T03:49:03.977Z,81.63
2018-11-28T03:50:03.961Z,81.22
2018-11-28T03:51:03.951Z,81.32
2018-11-28T03:52:03.942Z,81.32
2018-11-28T03:53:03.944Z,81.78
2018-11-28T03:54:03.919Z,82.30
2018-11-28T03:55:03.909Z,82.30
2018-11-28T03:56:03.896Z,82.51
2018-11-28T03:57:03.889Z,81.63
2018-11-28T03:58:03.889Z,82.20
2018-11-28T03:59:03.869Z,82.40
2018-11-28T04:00:03.855Z,82.40
2018-11-28T04:01:03.848Z,82.30
2018-11-28T04:02:03.835Z,82.40
2018-11-28T04:03:03.843Z,82.40
2018-11-28T04:04:03.817Z,82.40
2018-11-28T04:05:03.803Z,82.06
2018-11-28T04:06:03.794Z,82.51
2018-11-28T04:07:03.831Z,81.36
2018-11-28T04:08:03.785Z,80.52
2018-11-28T04:09:03.762Z,80.24
2018-11-28T04:10:03.760Z,80.98
2018-11-28T04:11:03.739Z,82.55
2018-11-28T04:12:03.733Z,81.36
2018-11-28T04:13:03.735Z,81.08
2018-11-28T04:14:03.712Z,81.08
2018-11-28T04:15:03.700Z,81.08
2018-11-28T04:16:03.688Z,80.87
2018-11-28T04:17:03.678Z,81.40
2018-11-28T04:18:03.694Z,81.26
2018-11-28T04:19:03.662Z,81.26
2018-11-28T04:20:03.648Z,82.65
2018-11-28T04:21:03.636Z,82.97
2018-11-28T04:22:03.636Z,82.76
2018-11-28T04:23:03.628Z,82.86
2018-11-28T04:24:03.604Z,83.07
2018-11-28T04:25:03.594Z,82.55
2018-11-28T04:26:03.587Z,82.34
2018-11-28T04:27:03.574Z,82.23
2018-11-28T04:28:03.575Z,82.45
2018-11-28T04:29:03.552Z,82.45
2018-11-28T04:30:03.585Z,82.55
2018-11-28T04:31:03.544Z,82.55
2018-11-28T04:32:03.523Z,82.23
2018-11-28T04:33:03.524Z,82.45
2018-11-28T04:34:03.502Z,82.76
2018-11-28T04:35:03.497Z,82.34
2018-11-28T04:36:03.488Z,82.86
2018-11-28T04:37:03.472Z,83.07
2018-11-28T04:38:03.471Z,83.39
2018-11-28T04:39:03.460Z,83.42
2018-11-28T04:40:03.441Z,83.42
2018-11-28T04:41:03.431Z,83.81
2018-11-28T04:42:03.421Z,84.05
2018-11-28T04:43:03.431Z,84.58
2018-11-28T04:44:03.397Z,84.58
2018-11-28T04:45:03.392Z,84.16
2018-11-28T04:46:03.383Z,84.79
2018-11-28T04:47:03.370Z,84.27
2018-11-28T04:48:03.369Z,84.47
2018-11-28T04:49:03.345Z,84.58
2018-11-28T04:50:03.375Z,84.54
2018-11-28T04:51:03.339Z,84.37
2018-11-28T04:52:03.321Z,84.58
2018-11-28T04:53:03.327Z,84.47
2018-11-28T04:54:03.294Z,85.21
2018-11-28T04:55:03.301Z,85.52
2018-11-28T04:56:03.274Z,85.10
2018-11-28T04:57:03.264Z,85.00
2018-11-28T04:58:03.290Z,85.56
2018-11-28T04:59:03.243Z,85.77
2018-11-28T05:00:03.243Z,85.03
2018-11-28T05:01:03.218Z,85.46
2018-11-28T05:02:03.210Z,86.19
2018-11-28T05:03:03.267Z,86.29
2018-11-28T05:04:03.203Z,86.19
2018-11-28T05:05:03.179Z,86.19
2018-11-28T05:06:03.171Z,86.29
2018-11-28T05:07:03.167Z,86.29
2018-11-28T05:08:03.204Z,86.06
2018-11-28T05:09:03.149Z,87.00
2018-11-28T05:10:03.126Z,88.47
2018-11-28T05:11:03.117Z,88.54
2018-11-28T05:12:03.107Z,88.01
2018-11-28T05:13:03.116Z,89.27
2018-11-28T05:14:03.105Z,89.17
2018-11-28T05:15:03.073Z,89.27
2018-11-28T05:16:03.066Z,89.48
2018-11-28T05:17:03.053Z,89.44
2018-11-28T05:18:03.046Z,89.23
2018-11-28T05:19:03.049Z,89.12
2018-11-28T05:20:03.023Z,89.59
2018-11-28T05:21:03.048Z,89.69
2018-11-28T05:22:03.001Z,89.90
2018-11-28T05:23:02.991Z,90.17
2018-11-28T05:24:03.011Z,90.80
2018-11-28T05:25:02.970Z,89.54
2018-11-28T05:26:02.979Z,89.65
2018-11-28T05:27:02.955Z,89.97
2018-11-28T05:28:02.939Z,90.07
2018-11-28T05:29:02.933Z,90.07
2018-11-28T05:30:02.988Z,90.49
2018-11-28T05:31:02.908Z,90.38
2018-11-28T05:32:02.897Z,90.70
2018-11-28T05:33:02.901Z,91.12
2018-11-28T05:34:02.879Z,91.12
2018-11-28T05:35:02.879Z,90.80
2018-11-28T05:36:02.863Z,89.54
2018-11-28T05:37:02.850Z,90.17
2018-11-28T05:38:02.837Z,90.59
2018-11-28T05:39:02.825Z,89.97
2018-11-28T05:40:02.853Z,90.80
2018-11-28T05:41:02.805Z,90.70
2018-11-28T05:42:02.798Z,90.28
2018-11-28T05:43:02.788Z,90.49
2018-11-28T05:44:02.777Z,90.17
2018-11-28T05:45:02.777Z,90.07
2018-11-28T05:46:02.764Z,90.80
2018-11-28T05:47:02.743Z,90.84
2018-11-28T05:48:02.736Z,90.74
2018-11-28T05:49:02.728Z,90.28
2018-11-28T05:50:02.712Z,89.69
2018-11-28T05:51:02.728Z,89.59
2018-11-28T05:52:02.691Z,90.22
2018-11-28T05:53:02.680Z,90.89
2018-11-28T05:54:02.670Z,90.89
2018-11-28T05:55:02.672Z,90.36
2018-11-28T05:56:02.686Z,90.57
2018-11-28T05:57:02.643Z,90.99
2018-11-28T05:58:02.627Z,91.14
2018-11-28T05:59:03.498Z,91.20
2018-11-28T06:00:02.644Z,91.14
2018-11-28T06:01:02.612Z,91.20
2018-11-28T06:02:02.591Z,91.52
2018-11-28T06:03:02.578Z,91.52
2018-11-28T06:04:02.623Z,91.72
2018-11-28T06:05:02.556Z,91.52
2018-11-28T06:06:02.561Z,92.46
2018-11-28T06:07:02.534Z,92.46
2018-11-28T06:08:02.523Z,92.35
2018-11-28T06:09:05.556Z,92.67
2018-11-28T06:10:02.516Z,92.46
2018-11-28T06:11:02.516Z,92.46
2018-11-28T06:12:02.483Z,92.57
2018-11-28T06:13:02.473Z,93.19
2018-11-28T06:14:02.467Z,92.67
2018-11-28T06:15:02.457Z,92.35
2018-11-28T06:16:02.463Z,92.52
2018-11-28T06:17:02.458Z,91.62
2018-11-28T06:18:02.420Z,91.72
2018-11-28T06:19:02.409Z,91.83
2018-11-28T06:20:02.397Z,91.72
2018-11-28T06:21:02.426Z,91.72
2018-11-28T06:22:02.406Z,91.52
2018-11-28T06:23:02.368Z,91.83
2018-11-28T06:24:02.355Z,91.30
2018-11-28T06:25:02.348Z,90.99
2018-11-28T06:26:02.347Z,91.62
2018-11-28T06:27:02.332Z,90.99
2018-11-28T06:28:02.324Z,91.20
2018-11-28T06:29:02.317Z,91.52
2018-11-28T06:30:02.298Z,90.99
2018-11-28T06:31:02.298Z,91.52
2018-11-28T06:32:02.283Z,91.09
2018-11-28T06:33:02.269Z,91.35
2018-11-28T06:34:02.252Z,91.41
2018-11-28T06:35:02.241Z,91.09
2018-11-28T06:36:02.244Z,90.89
2018-11-28T06:37:02.226Z,91.03
2018-11-28T06:38:02.213Z,90.92
2018-11-28T06:39:02.208Z,91.30
2018-11-28T06:40:02.192Z,90.99
2018-11-28T06:41:02.198Z,90.82
2018-11-28T06:42:02.183Z,90.78
2018-11-28T06:43:02.160Z,91.35
2018-11-28T06:44:02.150Z,91.14
2018-11-28T06:45:02.151Z,91.14
2018-11-28T06:46:02.143Z,90.61
2018-11-28T06:47:02.119Z,90.61
2018-11-28T06:48:02.122Z,91.14
2018-11-28T06:49:02.110Z,91.35
2018-11-28T06:50:02.176Z,91.24
2018-11-28T06:51:02.169Z,91.35
2018-11-28T06:52:02.076Z,91.45
2018-11-28T06:53:02.061Z,91.97
2018-11-28T06:54:02.043Z,91.66
2018-11-28T06:55:02.033Z,91.52
2018-11-28T06:56:02.087Z,91.35
2018-11-28T06:57:02.027Z,90.99
2018-11-28T06:58:02.007Z,90.99
2018-11-28T06:59:01.996Z,90.19
2018-11-28T07:00:02.000Z,91.20
2018-11-28T07:01:01.970Z,90.82
2018-11-28T07:02:01.992Z,90.51
2018-11-28T07:03:01.973Z,90.57
2018-11-28T07:04:01.943Z,90.25
2018-11-28T07:05:01.933Z,89.73
2018-11-28T07:06:02.868Z,89.48
2018-11-28T07:07:01.937Z,89.27
2018-11-28T07:08:01.938Z,89.06
2018-11-28T07:09:01.893Z,88.22
2018-11-28T07:10:01.882Z,87.76
2018-11-28T07:11:01.867Z,87.09
2018-11-28T07:12:01.859Z,85.90
2018-11-28T07:13:01.861Z,85.17
2018-11-28T07:14:01.838Z,84.64
2018-11-28T07:15:01.829Z,84.50
2018-11-28T07:16:01.816Z,83.87
2018-11-28T07:17:01.808Z,83.66
2018-11-28T07:18:01.808Z,82.72
2018-11-28T07:19:01.825Z,82.47
2018-11-28T07:20:01.796Z,82.02
2018-11-28T07:21:01.774Z,81.18
2018-11-28T07:22:01.762Z,81.35
2018-11-28T07:23:01.783Z,80.52
2018-11-28T07:24:01.737Z,79.75
2018-11-28T07:25:01.727Z,78.49
2018-11-28T07:26:01.736Z,79.22
2018-11-28T07:27:01.702Z,78.42
2018-11-28T07:28:01.707Z,79.99
2018-11-28T07:29:01.680Z,80.24
2018-11-28T07:30:01.680Z,80.45
2018-11-28T07:31:01.661Z,81.01
2018-11-28T07:32:01.647Z,80.87
2018-11-28T07:33:01.655Z,81.22
2018-11-28T07:34:01.631Z,81.12
2018-11-28T07:35:01.618Z,81.32
2018-11-28T07:36:01.608Z,82.30
2018-11-28T07:37:01.598Z,82.40
2018-11-28T07:38:01.620Z,82.40
2018-11-28T07:39:01.578Z,82.82
2018-11-28T07:40:01.563Z,82.82
2018-11-28T07:41:01.560Z,82.12
2018-11-28T07:42:01.547Z,80.93
2018-11-28T07:43:01.543Z,80.62
2018-11-28T07:44:01.525Z,79.02
2018-11-28T07:45:01.534Z,78.95
2018-11-28T07:46:01.501Z,78.42
2018-11-28T07:47:01.490Z,79.05
2018-11-28T07:48:01.493Z,80.24
2018-11-28T07:49:01.481Z,80.66
2018-11-28T07:50:01.460Z,80.73
2018-11-28T07:51:01.465Z,78.88
2018-11-28T07:52:01.436Z,76.51
2018-11-28T07:53:01.474Z,74.52
2018-11-28T07:54:01.434Z,71.92
2018-11-28T07:55:01.408Z,69.89
2018-11-28T07:56:01.403Z,68.60
2018-11-28T07:57:01.389Z,66.67
2018-11-28T07:58:01.416Z,65.77
2018-11-28T07:59:01.422Z,66.08
2018-11-28T08:00:01.363Z,66.08
2018-11-28T08:01:01.348Z,65.97
2018-11-28T08:02:01.334Z,66.08
2018-11-28T08:03:01.333Z,66.18
2018-11-28T08:04:01.401Z,65.87
2018-11-28T08:05:01.417Z,65.35
2018-11-28T08:06:01.292Z,65.48
2018-11-28T08:07:01.289Z,66.21
2018-11-28T08:08:01.289Z,65.63
2018-11-28T08:09:01.281Z,65.01
2018-11-28T08:10:01.272Z,63.63
2018-11-28T08:11:01.261Z,63.71
2018-11-28T08:12:01.236Z,63.09
2018-11-28T08:13:01.219Z,63.26
2018-11-28T08:14:01.223Z,62.43
2018-11-28T08:15:01.197Z,63.42
2018-11-28T08:16:01.187Z,65.07
2018-11-28T08:17:01.183Z,67.45
2018-11-28T08:18:01.171Z,68.63
2018-11-28T08:19:01.170Z,68.63
2018-11-28T08:20:01.147Z,68.80
2018-11-28T08:21:01.136Z,68.35
2018-11-28T08:22:01.199Z,67.42
2018-11-28T08:23:01.129Z,67.21
2018-11-28T08:24:01.119Z,67.45
2018-11-28T08:25:01.097Z,68.45
2018-11-28T08:26:01.088Z,69.42
2018-11-28T08:27:01.122Z,70.84
2018-11-28T08:28:01.061Z,71.43
2018-11-28T08:29:01.082Z,69.73
2018-11-28T08:30:01.046Z,70.04
2018-11-28T08:31:01.027Z,69.84
2018-11-28T08:32:01.040Z,71.01
2018-11-28T08:33:01.005Z,71.12
2018-11-28T08:34:00.995Z,71.22
2018-11-28T08:35:01.735Z,71.53
2018-11-28T08:36:01.118Z,71.64
2018-11-28T08:37:00.965Z,69.63
2018-11-28T08:38:01.003Z,70.01
2018-11-28T08:39:01.758Z,68.28
2018-11-28T08:40:00.951Z,66.77
2018-11-28T08:41:00.925Z,65.25
2018-11-28T08:42:00.915Z,63.45
2018-11-28T08:43:00.908Z,62.77
2018-11-28T08:44:00.891Z,61.78
2018-11-28T08:45:00.896Z,60.10
2018-11-28T08:46:00.869Z,58.12
2018-11-28T08:47:00.861Z,58.23
2018-11-28T08:48:00.846Z,58.75
2018-11-28T08:49:00.839Z,58.41
2018-11-28T08:50:00.844Z,57.50
2018-11-28T08:51:00.814Z,57.58
2018-11-28T08:52:00.808Z,57.60
2018-11-28T08:53:00.799Z,57.40
2018-11-28T08:54:00.788Z,58.47
2018-11-28T08:55:00.829Z,58.23
2018-11-28T08:56:00.766Z,57.60
2018-11-28T08:57:00.799Z,57.60
2018-11-28T08:58:00.756Z,56.47
2018-11-28T08:59:00.733Z,57.30
2018-11-28T09:00:00.807Z,56.34
2018-11-28T09:01:00.745Z,56.68
2018-11-28T09:02:00.706Z,56.88
2018-11-28T09:03:00.716Z,57.12
2018-11-28T09:04:00.727Z,58.18
2018-11-28T09:05:00.682Z,58.91
2018-11-28T09:06:00.674Z,59.11
2018-11-28T09:07:00.650Z,58.39
2018-11-28T09:08:00.635Z,59.45
2018-11-28T09:09:00.625Z,59.35
2018-11-28T09:10:00.658Z,59.79
2018-11-28T09:11:00.632Z,60.10
2018-11-28T09:12:00.610Z,60.21
2018-11-28T09:13:04.217Z,60.62
2018-11-28T09:14:04.465Z,59.58
2018-11-28T09:15:00.562Z,59.87
2018-11-28T09:16:00.596Z,59.42
2018-11-28T09:17:00.546Z,58.47
2018-11-28T09:18:00.555Z,57.74
2018-11-28T09:19:00.517Z,57.53
2018-11-28T09:20:00.509Z,56.60
2018-11-28T09:21:00.521Z,56.39
2018-11-28T09:22:00.506Z,56.70
2018-11-28T09:23:00.490Z,56.60
2018-11-28T09:24:00.481Z,54.73
2018-11-28T09:25:00.457Z,55.87
2018-11-28T09:26:00.457Z,55.77
2018-11-28T09:27:00.437Z,54.83
2018-11-28T09:28:00.428Z,55.56
2018-11-28T09:29:00.429Z,55.02
2018-11-28T09:30:00.406Z,54.81
2018-11-28T09:31:00.406Z,54.39
2018-11-28T09:32:00.384Z,54.34
2018-11-28T09:33:00.369Z,55.79
2018-11-28T09:34:00.358Z,54.96
2018-11-28T09:35:00.355Z,55.20
2018-11-28T09:36:00.374Z,56.24
2018-11-28T09:37:00.330Z,55.72
2018-11-28T09:38:00.318Z,55.82
2018-11-28T09:39:00.307Z,55.82
2018-11-28T09:40:00.308Z,55.72
2018-11-28T09:41:00.294Z,55.93
2018-11-28T09:42:00.297Z,55.82
2018-11-28T09:43:00.267Z,55.41
2018-11-28T09:44:00.262Z,54.99
2018-11-28T09:45:00.243Z,55.10
2018-11-28T09:46:00.231Z,55.12
2018-11-28T09:47:00.237Z,55.33
2018-11-28T09:48:00.220Z,55.74
2018-11-28T09:49:00.205Z,55.74
2018-11-28T09:50:00.237Z,55.25
2018-11-28T09:51:00.180Z,55.66
2018-11-28T09:52:00.179Z,55.56
2018-11-28T09:53:00.175Z,56.29
2018-11-28T09:54:00.154Z,56.52
2018-11-28T09:55:00.138Z,56.73
2018-11-28T09:56:00.129Z,55.38
2018-11-28T09:57:00.148Z,56.52
2018-11-28T09:58:00.107Z,57.24
2018-11-28T09:59:00.108Z,57.04
2018-11-28T10:00:00.083Z,56.41
2018-11-28T10:01:00.077Z,56.52
2018-11-28T10:02:00.063Z,56.10
2018-11-28T10:03:00.072Z,55.90
2018-11-28T10:04:00.041Z,56.93
2018-11-28T10:05:02.713Z,57.35
2018-11-28T10:06:00.025Z,57.87
2018-11-28T10:07:00.022Z,56.21
2018-11-28T10:08:00.016Z,56.02
2018-11-28T10:08:59.996Z,56.86
2018-11-28T10:10:00.008Z,57.28
2018-11-28T10:10:59.970Z,56.55
2018-11-28T10:11:59.976Z,56.23
2018-11-28T10:12:59.963Z,56.65
2018-11-28T10:13:59.943Z,57.17
2018-11-28T10:14:59.931Z,57.04
2018-11-28T10:16:01.248Z,57.14
2018-11-28T10:16:59.904Z,56.62
2018-11-28T10:17:59.909Z,57.14
2018-11-28T10:18:59.886Z,56.83
2018-11-28T10:19:59.874Z,57.04
2018-11-28T10:20:59.864Z,56.83
2018-11-28T10:21:59.859Z,55.92
2018-11-28T10:22:59.853Z,56.34
2018-11-28T10:23:59.833Z,56.55
2018-11-28T10:24:59.821Z,57.38
2018-11-28T10:25:59.849Z,57.28
2018-11-28T10:26:59.797Z,57.90
2018-11-28T10:27:59.802Z,57.48
2018-11-28T10:28:59.779Z,57.59
2018-11-28T10:29:59.778Z,57.17
2018-11-28T10:30:59.755Z,57.20
2018-11-28T10:31:59.760Z,57.20
2018-11-28T10:32:59.784Z,58.03
2018-11-28T10:33:59.725Z,58.03
2018-11-28T10:34:59.717Z,58.13
2018-11-28T10:35:59.710Z,56.37
2018-11-28T10:36:59.705Z,56.34
2018-11-28T10:37:59.692Z,55.61
2018-11-28T10:38:59.685Z,55.30
2018-11-28T10:39:59.664Z,55.40
2018-11-28T10:40:59.674Z,55.11
2018-11-28T10:41:59.640Z,54.60
2018-11-28T10:42:59.640Z,54.70
2018-11-28T10:43:59.631Z,54.91
2018-11-28T10:44:59.615Z,54.49
2018-11-28T10:45:59.601Z,54.39
2018-11-28T10:46:59.588Z,54.80
2018-11-28T10:47:59.584Z,54.70
2018-11-28T10:48:59.596Z,55.32
2018-11-28T10:49:59.560Z,55.01
2018-11-28T10:50:59.543Z,55.22
2018-11-28T10:52:00.316Z,55.01
2018-11-28T10:52:59.560Z,55.11
2018-11-28T10:53:59.528Z,55.11
2018-11-28T10:54:59.512Z,55.11
2018-11-28T10:55:59.493Z,54.08
2018-11-28T10:56:59.505Z,53.97
2018-11-28T10:57:59.476Z,54.00
2018-11-28T10:58:59.466Z,53.58
2018-11-28T10:59:59.471Z,54.41
2018-11-28T11:00:59.458Z,54.83
2018-11-28T11:01:59.432Z,54.62
2018-11-28T11:02:59.420Z,54.70
2018-11-28T11:03:59.408Z,54.60
2018-11-28T11:04:59.439Z,54.70
2018-11-28T11:05:59.388Z,54.80
2018-11-28T11:06:59.378Z,54.80
2018-11-28T11:07:59.367Z,54.80
2018-11-28T11:08:59.359Z,55.01
2018-11-28T11:09:59.359Z,53.97
2018-11-28T11:10:59.362Z,53.97
2018-11-28T11:11:59.335Z,53.87
2018-11-28T11:12:59.312Z,53.77
2018-11-28T11:13:59.339Z,53.66
2018-11-28T11:14:59.289Z,53.66
2018-11-28T11:15:59.290Z,53.25
2018-11-28T11:16:59.278Z,53.97
2018-11-28T11:18:02.083Z,53.56
2018-11-28T11:18:59.257Z,54.18
2018-11-28T11:19:59.247Z,53.66
2018-11-28T11:20:59.251Z,54.49
2018-11-28T11:21:59.218Z,53.69
2018-11-28T11:22:59.216Z,54.41
2018-11-28T11:23:59.197Z,54.93
2018-11-28T11:24:59.198Z,54.60
2018-11-28T11:25:59.186Z,54.60
2018-11-28T11:26:59.199Z,53.97
2018-11-28T11:27:59.161Z,53.87
2018-11-28T11:28:59.148Z,54.18
2018-11-28T11:29:59.190Z,54.08
2018-11-28T11:30:59.133Z,53.66
2018-11-28T11:31:59.107Z,54.60
2018-11-28T11:32:59.097Z,54.08
2018-11-28T11:33:59.086Z,54.08
2018-11-28T11:34:59.078Z,53.87
2018-11-28T11:35:59.076Z,53.97
2018-11-28T11:36:59.053Z,53.25
2018-11-28T11:37:59.044Z,53.14
2018-11-28T11:38:59.036Z,53.25
2018-11-28T11:39:59.025Z,53.35
2018-11-28T11:40:59.029Z,53.43
2018-11-28T11:41:59.006Z,53.22
2018-11-28T11:42:58.998Z,53.74
2018-11-28T11:43:58.979Z,53.11
2018-11-28T11:44:58.969Z,53.64
2018-11-28T11:45:58.970Z,53.35
2018-11-28T11:46:58.973Z,53.77
2018-11-28T11:47:58.944Z,53.43
2018-11-28T11:48:58.931Z,53.56
2018-11-28T11:49:58.925Z,53.95
2018-11-28T11:50:58.922Z,53.45
2018-11-28T11:51:58.894Z,53.64
2018-11-28T11:52:58.893Z,53.33
2018-11-28T11:53:58.873Z,53.53
2018-11-28T11:54:58.867Z,53.14
2018-11-28T11:55:58.890Z,53.14
2018-11-28T11:56:58.903Z,53.25
2018-11-28T11:57:58.836Z,53.53
2018-11-28T11:58:58.856Z,54.08
2018-11-28T11:59:58.814Z,53.45
2018-11-28T12:00:58.837Z,53.87
2018-11-28T12:01:58.837Z,53.97
2018-11-28T12:02:58.779Z,53.87
2018-11-28T12:03:59.163Z,53.56
2018-11-28T12:04:58.830Z,53.43
2018-11-28T12:05:58.767Z,54.05
2018-11-28T12:06:58.786Z,53.64
2018-11-28T12:07:58.744Z,53.33
2018-11-28T12:08:58.735Z,53.87
2018-11-28T12:09:58.734Z,54.16
2018-11-28T12:10:58.742Z,53.22
2018-11-28T12:11:58.748Z,53.66
2018-11-28T12:12:58.704Z,53.85
2018-11-28T12:13:58.678Z,53.97
2018-11-28T12:14:58.678Z,54.16
2018-11-28T12:15:58.667Z,54.05
2018-11-28T12:16:58.680Z,53.85
2018-11-28T12:17:58.623Z,54.05
2018-11-28T12:18:58.652Z,54.88
2018-11-28T12:19:58.610Z,54.57
2018-11-28T12:20:58.627Z,53.64
2018-11-28T12:21:58.653Z,53.43
2018-11-28T12:22:58.591Z,53.43
2018-11-28T12:23:58.593Z,54.16
2018-11-28T12:24:58.567Z,53.85
2018-11-28T12:25:58.564Z,54.16
2018-11-28T12:26:58.546Z,54.05
2018-11-28T12:27:58.540Z,53.22
2018-11-28T12:28:58.505Z,53.64
2018-11-28T12:29:58.498Z,54.18
2018-11-28T12:30:58.481Z,53.45
2018-11-28T12:31:58.480Z,53.74
2018-11-28T12:32:58.482Z,54.36
2018-11-28T12:33:58.467Z,54.80
2018-11-28T12:34:58.438Z,54.47
2018-11-28T12:35:58.428Z,54.47
2018-11-28T12:36:58.434Z,54.36
2018-11-28T12:37:58.423Z,54.08
2018-11-28T12:38:58.408Z,55.01
2018-11-28T12:39:58.413Z,55.09
2018-11-28T12:40:58.469Z,54.68
2018-11-28T12:41:58.387Z,54.88
2018-11-28T12:42:58.383Z,54.57
2018-11-28T12:43:58.361Z,54.36
2018-11-28T12:44:58.364Z,54.26
2018-11-28T12:45:58.334Z,54.99
2018-11-28T12:46:58.339Z,54.68
2018-11-28T12:47:58.315Z,54.78
2018-11-28T12:48:58.294Z,54.88
2018-11-28T12:49:58.289Z,54.78
2018-11-28T12:50:58.284Z,54.88
2018-11-28T12:51:58.261Z,54.47